Terminal Aerodrome Forecast
Issued by NWS Cleveland, OH

Home | Current Version | Previous Version | Graphics & Text | Print | Product List | Glossary On
Versions: 1 2 3 4 5 6 7 8 9 10 11 12 13 14 15
309
FTUS41 KCLE 221128
TAFYNG
TAF
KYNG 221128Z 2212/2312 34014G22KT P6SM SCT026 BKN035
      TEMPO 2212/2214 4SM -SHSN BKN026
     FM221800 35012KT P6SM SCT035
     FM230000 36005KT P6SM FEW250=

USA.gov is the U.S. government's official web portal to all federal, state and local government web resources and services.